Time;durP1;ratioP1;P1;durP2;ratioP2;P2;SDS_P1;SDS_P2;PMS_P1;PMS_P2;Temp;Humidity;BMP_temperature;BMP_pressure;BME280_temperature;BME280_humidity;BME280_pressure;Samples;Min_cycle;Max_cycle;Signal;HPM_P1;HPM_P2
2020/12/17 00:01:15;;;;;;;20.90;12.90;;;23.20;34.60;;;;;;5046772;28;20052;-73
2020/12/17 00:03:42;;;;;;;24.55;14.00;;;23.10;34.60;;;;;;5045737;28;20111;-73
2020/12/17 00:06:12;;;;;;;21.70;12.60;;;23.20;34.60;;;;;;5046416;28;20236;-73
2020/12/17 00:08:38;;;;;;;19.10;12.07;;;23.10;34.60;;;;;;5046172;28;20084;-73
2020/12/17 00:11:05;;;;;;;22.48;13.38;;;23.10;34.60;;;;;;5045161;28;20072;-73
2020/12/17 00:13:32;;;;;;;22.02;12.80;;;23.10;34.60;;;;;;5049328;28;20067;-73
2020/12/17 00:15:59;;;;;;;20.05;12.55;;;23.10;34.60;;;;;;5050354;28;20104;-74
2020/12/17 00:18:26;;;;;;;22.08;12.70;;;23.10;34.60;;;;;;5049984;28;20044;-74
2020/12/17 00:20:52;;;;;;;22.08;13.27;;;23.10;34.60;;;;;;5049699;28;20084;-73
2020/12/17 00:23:20;;;;;;;20.25;12.70;;;23.10;34.60;;;;;;5048917;28;20268;-76
2020/12/17 00:25:46;;;;;;;21.25;12.43;;;23.10;34.60;;;;;;5049731;28;20080;-73
2020/12/17 00:28:13;;;;;;;22.55;13.20;;;23.10;34.60;;;;;;5049293;28;20316;-74
2020/12/17 00:30:39;;;;;;;22.58;13.13;;;23.10;34.50;;;;;;5048260;28;20171;-73
2020/12/17 00:33:06;;;;;;;24.30;13.75;;;23.10;34.50;;;;;;5049506;28;20127;-73
2020/12/17 00:35:32;;;;;;;21.30;12.80;;;23.10;35.10;;;;;;5050199;28;20111;-73
2020/12/17 00:37:59;;;;;;;21.35;12.35;;;23.10;34.50;;;;;;5050224;28;20055;-73
2020/12/17 00:40:26;;;;;;;23.13;13.18;;;23.10;34.50;;;;;;5049385;28;20077;-73
2020/12/17 00:42:52;;;;;;;22.27;12.73;;;23.10;34.50;;;;;;5049947;28;20049;-73
2020/12/17 00:45:20;;;;;;;23.95;13.30;;;23.10;34.50;;;;;;5049475;28;20087;-74
2020/12/17 00:47:46;;;;;;;21.98;13.10;;;23.10;34.50;;;;;;5049710;28;20118;-73
2020/12/17 00:50:13;;;;;;;21.00;12.18;;;23.10;34.50;;;;;;5047724;28;20287;-74
2020/12/17 00:52:40;;;;;;;19.88;12.15;;;23.10;34.50;;;;;;5049914;28;20136;-74
2020/12/17 00:55:07;;;;;;;21.88;12.40;;;23.10;34.50;;;;;;5049347;28;20041;-74
2020/12/17 00:57:34;;;;;;;22.67;13.05;;;23.10;34.50;;;;;;5049213;28;20045;-74
2020/12/17 01:00:03;;;;;;;23.42;12.07;;;23.10;34.50;;;;;;5048292;28;20561;-73
2020/12/17 01:02:30;;;;;;;21.77;13.10;;;23.10;35.10;;;;;;5049023;28;20132;-74
2020/12/17 01:04:56;;;;;;;20.50;12.18;;;23.10;34.60;;;;;;5049115;28;20049;-73
2020/12/17 01:07:23;;;;;;;20.88;12.10;;;23.00;34.50;;;;;;5049391;28;20402;-73
2020/12/17 01:09:49;;;;;;;20.95;12.38;;;23.00;34.50;;;;;;5049058;28;20131;-73
2020/12/17 01:12:16;;;;;;;20.08;12.18;;;23.00;34.50;;;;;;5049344;28;20044;-74
2020/12/17 01:14:42;;;;;;;20.27;11.95;;;23.00;34.50;;;;;;5048757;28;20565;-73
2020/12/17 01:17:09;;;;;;;21.48;12.43;;;23.00;34.50;;;;;;5048046;28;20113;-74
2020/12/17 01:19:36;;;;;;;20.70;12.20;;;23.00;34.50;;;;;;5048690;28;20083;-74
2020/12/17 01:22:03;;;;;;;18.80;12.38;;;23.00;34.60;;;;;;5048937;28;20447;-74
2020/12/17 01:24:29;;;;;;;19.20;11.55;;;23.00;34.50;;;;;;5047856;28;20140;-73
2020/12/17 01:26:56;;;;;;;23.15;13.07;;;23.00;34.50;;;;;;5048309;28;20079;-73
2020/12/17 01:29:24;;;;;;;19.83;11.30;;;23.10;34.50;;;;;;5048736;28;20564;-73
2020/12/17 01:31:58;;;;;;;20.45;11.50;;;23.10;34.50;;;;;;5048037;28;20454;-73
2020/12/17 01:34:26;;;;;;;18.40;11.57;;;23.10;34.50;;;;;;5047928;28;20041;-74
2020/12/17 01:36:54;;;;;;;21.08;12.40;;;23.10;34.40;;;;;;5047961;28;20486;-73
2020/12/17 01:39:22;;;;;;;20.90;12.75;;;23.10;34.40;;;;;;5048549;28;20131;-73
2020/12/17 01:41:49;;;;;;;21.52;12.57;;;23.00;34.40;;;;;;5047791;28;20471;-73
2020/12/17 01:44:17;;;;;;;20.67;11.80;;;23.10;34.50;;;;;;5048469;28;20405;-74
2020/12/17 01:46:44;;;;;;;21.20;12.25;;;23.00;34.40;;;;;;5047347;28;20048;-73
2020/12/17 01:49:15;;;;;;;19.83;11.82;;;23.00;34.40;;;;;;5048669;28;20133;-73
2020/12/17 01:51:42;;;;;;;19.95;11.98;;;23.00;34.40;;;;;;5047267;28;20052;-73
2020/12/17 01:54:09;;;;;;;19.08;11.95;;;23.00;34.50;;;;;;5048839;28;20123;-73
2020/12/17 01:56:38;;;;;;;18.20;11.52;;;23.00;34.50;;;;;;5046414;28;20106;-73
2020/12/17 01:59:21;;;;;;;18.98;11.13;;;22.90;34.40;;;;;;5048473;28;20041;-73
2020/12/17 02:01:50;;;;;;;19.17;11.02;;;22.90;34.50;;;;;;5047762;28;20372;-73
2020/12/17 02:04:25;;;;;;;19.52;11.35;;;23.00;34.50;;;;;;5047706;28;20064;-73
2020/12/17 02:06:51;;;;;;;18.25;11.30;;;23.00;34.60;;;;;;5048104;28;20123;-73
2020/12/17 02:09:19;;;;;;;19.73;11.95;;;22.90;34.50;;;;;;5046402;28;20053;-73
2020/12/17 02:11:54;;;;;;;19.30;11.73;;;22.90;34.50;;;;;;5047766;28;20037;-76
2020/12/17 02:14:22;;;;;;;20.52;12.05;;;22.90;34.50;;;;;;5046737;28;20049;-73
2020/12/17 02:16:49;;;;;;;19.60;11.70;;;22.90;34.50;;;;;;5048086;28;20112;-74
2020/12/17 02:19:19;;;;;;;19.05;10.80;;;22.90;34.50;;;;;;5048039;28;20079;-73
2020/12/17 02:21:46;;;;;;;20.17;11.75;;;22.90;34.50;;;;;;5047271;28;20044;-74
2020/12/17 02:24:13;;;;;;;20.40;11.45;;;22.90;34.50;;;;;;5048040;28;20434;-73
2020/12/17 02:26:39;;;;;;;19.63;11.77;;;22.90;34.50;;;;;;5047634;28;20276;-73
2020/12/17 02:29:06;;;;;;;18.13;11.07;;;22.90;34.40;;;;;;5047543;28;20136;-73
2020/12/17 02:31:36;;;;;;;19.02;11.77;;;23.00;34.50;;;;;;5047323;28;20585;-73
2020/12/17 02:34:03;;;;;;;19.02;11.40;;;22.90;34.40;;;;;;5048026;28;20131;-73
2020/12/17 02:36:29;;;;;;;20.33;11.57;;;23.00;34.40;;;;;;5046069;28;20079;-73
2020/12/17 02:38:58;;;;;;;21.88;11.52;;;23.00;34.40;;;;;;5047286;28;20257;-73
2020/12/17 02:41:25;;;;;;;19.60;10.98;;;23.00;34.40;;;;;;5047058;28;20250;-73
2020/12/17 02:43:53;;;;;;;18.27;11.23;;;22.90;34.40;;;;;;5047482;28;20198;-73
2020/12/17 02:46:20;;;;;;;17.88;10.90;;;22.90;34.40;;;;;;5047592;28;20080;-73
2020/12/17 02:48:52;;;;;;;19.88;12.00;;;22.90;34.40;;;;;;5047418;28;20041;-73
2020/12/17 02:51:19;;;;;;;18.90;10.75;;;22.90;34.40;;;;;;5047148;28;20103;-73
2020/12/17 02:53:47;;;;;;;16.13;10.00;;;22.90;34.50;;;;;;5047375;28;20072;-73
2020/12/17 02:56:15;;;;;;;18.98;10.82;;;22.90;34.50;;;;;;5047626;28;20079;-73
2020/12/17 02:58:42;;;;;;;21.15;11.80;;;22.90;34.50;;;;;;5047289;28;20130;-73
2020/12/17 03:01:09;;;;;;;18.23;11.40;;;22.90;34.50;;;;;;5047378;28;20051;-73
2020/12/17 03:03:36;;;;;;;19.08;11.50;;;22.90;34.50;;;;;;5045658;28;20136;-73
2020/12/17 03:06:04;;;;;;;17.92;11.13;;;22.90;34.50;;;;;;5047590;28;20139;-75
2020/12/17 03:08:32;;;;;;;20.38;11.38;;;22.80;34.50;;;;;;5047151;28;20071;-73
2020/12/17 03:10:59;;;;;;;20.15;11.13;;;22.80;34.50;;;;;;5045996;28;20053;-73
2020/12/17 03:13:26;;;;;;;18.70;11.07;;;22.80;34.50;;;;;;5047006;28;20561;-73
2020/12/17 03:15:52;;;;;;;17.75;10.85;;;22.80;34.50;;;;;;5046780;28;20091;-72
2020/12/17 03:18:19;;;;;;;22.20;12.23;;;22.80;34.50;;;;;;5046510;28;20094;-73
2020/12/17 03:20:46;;;;;;;19.90;11.50;;;22.80;34.50;;;;;;5045716;28;20140;-72
2020/12/17 03:23:14;;;;;;;17.52;10.55;;;22.80;34.50;;;;;;5046347;28;20733;-73
2020/12/17 03:25:40;;;;;;;17.95;10.30;;;22.90;34.50;;;;;;5047406;28;20132;-73
2020/12/17 03:28:07;;;;;;;20.88;11.95;;;22.90;34.50;;;;;;5046619;28;20072;-72
2020/12/17 03:30:34;;;;;;;16.92;10.63;;;22.90;34.50;;;;;;5046992;28;20041;-73
2020/12/17 03:33:00;;;;;;;19.80;11.05;;;22.90;34.50;;;;;;5045220;28;20338;-72
2020/12/17 03:35:27;;;;;;;19.38;11.30;;;22.90;34.40;;;;;;5046841;28;20077;-73
2020/12/17 03:37:57;;;;;;;19.17;10.68;;;22.90;34.40;;;;;;5047291;28;20095;-73
2020/12/17 03:40:26;;;;;;;17.70;10.70;;;22.90;34.40;;;;;;5046622;28;20045;-73
2020/12/17 03:42:52;;;;;;;19.48;10.77;;;22.80;34.40;;;;;;5046122;28;20521;-72
2020/12/17 03:45:20;;;;;;;21.45;11.82;;;22.80;34.40;;;;;;5045931;28;20309;-72
2020/12/17 03:47:46;;;;;;;17.30;10.80;;;22.80;34.40;;;;;;5047010;28;20127;-72
2020/12/17 03:50:14;;;;;;;21.33;12.02;;;22.80;34.40;;;;;;5049453;28;20136;-72
2020/12/17 03:52:40;;;;;;;18.95;10.82;;;22.80;34.40;;;;;;5050370;28;20080;-74
2020/12/17 03:55:07;;;;;;;20.08;11.52;;;22.80;34.40;;;;;;5050248;28;20136;-73
2020/12/17 03:57:34;;;;;;;19.95;11.30;;;22.80;34.50;;;;;;5048398;28;20114;-72
2020/12/17 04:00:00;;;;;;;19.15;10.32;;;22.80;34.50;;;;;;5050338;28;20660;-75
2020/12/17 04:02:27;;;;;;;19.30;10.52;;;22.80;34.50;;;;;;5050215;28;20203;-73
2020/12/17 04:04:53;;;;;;;17.70;10.95;;;22.80;34.50;;;;;;5050328;28;20081;-73
2020/12/17 04:07:20;;;;;;;19.50;10.70;;;22.80;34.50;;;;;;5050432;28;20748;-72
2020/12/17 04:09:47;;;;;;;20.80;10.80;;;22.80;34.50;;;;;;5049424;28;20279;-72
2020/12/17 04:12:14;;;;;;;18.13;10.55;;;22.80;34.50;;;;;;5050238;28;20491;-73
2020/12/17 04:14:42;;;;;;;17.50;10.13;;;22.80;34.50;;;;;;5050451;28;20048;-73
2020/12/17 04:17:08;;;;;;;19.02;10.98;;;22.80;34.50;;;;;;5050099;28;20498;-73
2020/12/17 04:19:35;;;;;;;22.35;11.85;;;22.80;34.50;;;;;;5050313;28;20145;-73
2020/12/17 04:22:01;;;;;;;16.60;10.48;;;22.80;34.50;;;;;;5047567;28;20056;-72
2020/12/17 04:24:30;;;;;;;21.50;11.20;;;22.80;34.50;;;;;;5048244;28;20169;-73
2020/12/17 04:26:57;;;;;;;19.05;10.68;;;22.80;34.50;;;;;;5050700;28;20099;-73
2020/12/17 04:29:24;;;;;;;18.70;10.45;;;22.80;34.40;;;;;;5049983;28;20570;-73
2020/12/17 04:31:50;;;;;;;19.38;11.23;;;22.80;34.40;;;;;;5050136;28;20286;-73
2020/12/17 04:34:17;;;;;;;17.25;10.35;;;22.80;34.40;;;;;;5048349;28;20328;-72
2020/12/17 04:36:47;;;;;;;18.40;10.07;;;22.80;34.40;;;;;;5050044;28;20073;-73
2020/12/17 04:39:19;;;;;;;18.02;9.85;;;22.80;34.50;;;;;;5048301;28;20112;-73
2020/12/17 04:41:47;;;;;;;21.65;11.25;;;22.80;34.50;;;;;;5050054;28;20072;-72
2020/12/17 04:44:16;;;;;;;18.47;10.23;;;22.80;34.50;;;;;;5049613;28;20136;-72
2020/12/17 04:46:48;;;;;;;18.67;10.10;;;22.70;34.40;;;;;;5049381;28;20079;-73
2020/12/17 04:49:19;;;;;;;18.42;10.45;;;22.70;34.40;;;;;;5049819;28;20114;-73
2020/12/17 04:51:47;;;;;;;18.95;11.32;;;22.70;34.40;;;;;;5049342;28;20488;-73
2020/12/17 04:54:15;;;;;;;17.83;10.87;;;22.70;34.50;;;;;;5048539;28;20063;-75
2020/12/17 04:56:44;;;;;;;19.98;11.38;;;22.70;34.50;;;;;;5031683;28;20045;-73
2020/12/17 04:59:12;;;;;;;19.17;9.68;;;22.70;34.50;;;;;;5047761;28;20123;-73
2020/12/17 05:01:43;;;;;;;18.27;10.55;;;22.70;34.50;;;;;;5049410;28;20053;-72
2020/12/17 05:04:12;;;;;;;21.05;10.95;;;22.70;34.50;;;;;;5049152;28;20045;-72
2020/12/17 05:06:39;;;;;;;16.50;10.18;;;22.70;34.50;;;;;;5049519;28;20116;-73
2020/12/17 05:09:06;;;;;;;19.98;11.25;;;22.70;34.50;;;;;;5047798;28;20073;-72
2020/12/17 05:11:33;;;;;;;17.92;10.77;;;22.70;34.50;;;;;;5049049;28;20049;-73
2020/12/17 05:14:00;;;;;;;16.85;10.63;;;22.70;34.50;;;;;;5047161;28;20105;-73
2020/12/17 05:16:28;;;;;;;17.73;10.32;;;22.70;34.60;;;;;;5048579;28;20081;-72
2020/12/17 05:18:54;;;;;;;17.88;9.93;;;22.70;34.50;;;;;;5049261;28;20132;-73
2020/12/17 05:21:21;;;;;;;20.75;11.02;;;22.70;34.50;;;;;;5048170;28;20099;-73
2020/12/17 05:23:49;;;;;;;19.50;10.98;;;22.70;34.50;;;;;;5049002;28;20132;-72
2020/12/17 05:26:20;;;;;;;19.42;11.00;;;22.70;34.50;;;;;;5049058;28;20147;-72
2020/12/17 05:28:47;;;;;;;20.65;11.38;;;22.70;34.50;;;;;;5049119;28;20095;-72
2020/12/17 05:31:20;;;;;;;15.93;10.05;;;22.70;34.40;;;;;;5031077;28;20048;-73
2020/12/17 05:33:48;;;;;;;17.63;9.18;;;22.70;34.40;;;;;;5049026;28;20064;-73
2020/12/17 05:36:25;;;;;;;18.10;10.48;;;22.70;34.50;;;;;;5049129;28;20052;-72
2020/12/17 05:38:55;;;;;;;17.05;10.23;;;22.70;34.40;;;;;;5048518;28;20544;-73
2020/12/17 05:41:23;;;;;;;18.92;10.13;;;22.70;34.50;;;;;;5047128;28;20095;-72
2020/12/17 05:43:50;;;;;;;17.85;10.32;;;22.70;34.50;;;;;;5048855;28;20053;-72
2020/12/17 05:46:34;;;;;;;16.75;10.27;;;22.70;34.50;;;;;;5047838;28;20103;-73
2020/12/17 05:49:09;;;;;;;17.55;10.45;;;22.70;34.50;;;;;;5045544;28;20073;-73
2020/12/17 05:51:36;;;;;;;16.25;10.30;;;22.70;34.50;;;;;;5045396;28;20049;-72
2020/12/17 05:54:04;;;;;;;16.88;9.70;;;22.70;34.50;;;;;;5045154;28;20041;-73
2020/12/17 05:56:31;;;;;;;17.33;10.02;;;22.70;34.60;;;;;;5043897;28;20117;-72
2020/12/17 05:59:04;;;;;;;16.70;10.00;;;22.70;34.60;;;;;;5046543;28;20607;-73
2020/12/17 06:01:33;;;;;;;17.58;9.73;;;22.60;34.50;;;;;;5047302;28;20080;-73
2020/12/17 06:04:13;;;;;;;16.15;9.90;;;22.60;34.50;;;;;;5046652;28;20045;-73
2020/12/17 06:06:46;;;;;;;17.55;10.15;;;22.60;34.60;;;;;;5047304;28;20051;-72
2020/12/17 06:09:22;;;;;;;14.88;8.82;;;22.70;34.60;;;;;;5047403;28;20104;-72
2020/12/17 06:11:50;;;;;;;17.88;9.95;;;22.70;34.50;;;;;;5045377;28;20057;-73
2020/12/17 06:14:21;;;;;;;18.23;10.35;;;22.60;34.40;;;;;;5045927;28;20064;-73
2020/12/17 06:16:53;;;;;;;18.25;10.70;;;22.70;34.50;;;;;;5044858;28;20072;-74
2020/12/17 06:19:22;;;;;;;19.20;10.52;;;22.70;34.50;;;;;;5045038;28;20241;-74
2020/12/17 06:21:50;;;;;;;19.02;9.82;;;22.70;34.50;;;;;;5039465;28;20045;-72
2020/12/17 06:24:19;;;;;;;17.70;10.23;;;22.70;34.40;;;;;;5037886;28;20048;-75
2020/12/17 06:26:57;;;;;;;21.02;10.30;;;22.70;34.50;;;;;;5043119;28;20142;-73
2020/12/17 06:29:23;;;;;;;21.20;10.75;;;22.80;34.50;;;;;;5043503;28;20072;-75
2020/12/17 06:31:58;;;;;;;17.30;10.13;;;22.80;34.50;;;;;;5040028;28;20044;-74
2020/12/17 06:34:36;;;;;;;15.95;9.35;;;22.80;34.40;;;;;;5052482;28;20561;-71
2020/12/17 06:41:29;;;;;;;18.13;10.73;;;23.00;34.30;;;;;;5047367;28;20509;-81
2020/12/17 06:43:55;;;;;;;17.13;11.15;;;23.10;34.30;;;;;;5036619;28;20053;-80
2020/12/17 06:46:36;;;;;;;18.98;10.52;;;23.10;34.20;;;;;;5045243;28;20714;-80
2020/12/17 06:49:05;;;;;;;19.83;11.15;;;23.10;34.00;;;;;;5039727;28;20040;-77
2020/12/17 06:51:43;;;;;;;22.13;11.73;;;23.20;33.90;;;;;;5036008;28;20052;-76
2020/12/17 06:54:33;;;;;;;19.40;10.98;;;23.20;33.80;;;;;;5044263;28;20045;-74
2020/12/17 06:57:17;;;;;;;23.75;11.38;;;23.30;33.80;;;;;;5037876;28;20468;-72
2020/12/17 06:59:46;;;;;;;22.55;11.85;;;23.40;33.80;;;;;;5036932;28;20143;-73
2020/12/17 07:02:20;;;;;;;20.08;11.48;;;23.40;34.40;;;;;;5042147;28;20098;-72
2020/12/17 07:04:48;;;;;;;20.88;11.98;;;23.50;34.80;;;;;;5041229;28;20048;-74
2020/12/17 07:07:23;;;;;;;22.05;11.43;;;23.60;34.90;;;;;;5050494;28;20118;-74
2020/12/17 07:09:52;;;;;;;22.67;11.55;;;23.70;35.00;;;;;;5056867;28;20060;-72
2020/12/17 07:12:40;;;;;;;19.45;10.50;;;23.80;35.00;;;;;;5052464;28;20486;-76
2020/12/17 07:15:30;;;;;;;19.35;11.23;;;23.90;34.90;;;;;;5050607;28;20076;-75
2020/12/17 07:18:23;;;;;;;22.15;12.07;;;24.00;34.80;;;;;;5047272;28;20103;-68
2020/12/17 07:20:52;;;;;;;20.77;11.52;;;24.00;34.70;;;;;;5043230;28;20044;-67
2020/12/17 07:23:20;;;;;;;19.63;11.63;;;24.10;34.50;;;;;;5051718;28;20080;-68
2020/12/17 07:25:52;;;;;;;22.50;11.15;;;24.20;34.40;;;;;;5041955;28;20580;-77
2020/12/17 07:28:24;;;;;;;21.13;12.13;;;24.30;34.50;;;;;;5034406;28;20041;-72
2020/12/17 07:30:53;;;;;;;22.48;12.23;;;24.30;34.40;;;;;;5043712;28;20136;-72
2020/12/17 07:33:42;;;;;;;19.95;11.45;;;24.40;34.20;;;;;;5041326;28;20055;-74
2020/12/17 07:36:10;;;;;;;19.75;11.48;;;24.50;34.20;;;;;;5046965;28;20407;-76
2020/12/17 07:38:38;;;;;;;18.98;11.75;;;24.50;34.00;;;;;;5044861;28;20091;-73
2020/12/17 07:41:23;;;;;;;17.70;11.13;;;24.60;33.60;;;;;;5044229;28;20497;-74
2020/12/17 07:43:51;;;;;;;;;;;24.70;33.30;;;;;;5047329;28;20687;-74
2020/12/17 07:46:41;;;;;;;19.48;11.82;;;24.70;33.10;;;;;;5047450;28;20014;-76
2020/12/17 07:49:22;;;;;;;;;;;24.70;32.90;;;;;;5045909;28;20072;-75
2020/12/17 07:51:49;;;;;;;23.30;12.25;;;24.80;32.90;;;;;;5043021;28;20019;-77
2020/12/17 07:54:28;;;;;;;22.92;11.57;;;24.90;32.80;;;;;;5040194;28;20576;-77
2020/12/17 07:56:59;;;;;;;21.20;13.05;;;24.90;32.60;;;;;;5042015;28;20124;-76
2020/12/17 07:59:26;;;;;;;24.33;12.52;;;24.90;32.60;;;;;;5043009;28;20680;-74
2020/12/17 08:02:04;;;;;;;20.88;12.35;;;25.00;32.60;;;;;;5040310;28;20445;-73
2020/12/17 08:04:32;;;;;;;21.50;12.13;;;25.00;32.60;;;;;;5049856;28;20049;-76
2020/12/17 08:07:06;;;;;;;21.17;11.82;;;25.10;32.60;;;;;;5034541;28;20363;-70
2020/12/17 08:09:33;;;;;;;18.95;11.10;;;25.10;32.50;;;;;;5035413;28;20056;-73
2020/12/17 08:12:01;;;;;;;20.90;12.27;;;25.10;32.50;;;;;;5043488;28;20124;-79
2020/12/17 08:14:29;;;;;;;20.55;12.00;;;25.10;32.40;;;;;;5043899;28;20110;-77
2020/12/17 08:17:06;;;;;;;20.38;12.45;;;25.10;32.30;;;;;;5043145;28;20135;-72
2020/12/17 08:19:34;;;;;;;19.38;12.00;;;25.10;32.30;;;;;;5053161;28;20698;-75
2020/12/17 08:22:02;;;;;;;18.88;12.15;;;25.00;32.40;;;;;;5051973;28;20683;-75
2020/12/17 08:24:28;;;;;;;21.00;11.90;;;25.00;32.70;;;;;;5045756;28;20057;-78
2020/12/17 08:26:56;;;;;;;21.88;11.90;;;25.00;33.10;;;;;;5061107;28;20069;-75
2020/12/17 08:29:23;;;;;;;23.60;12.38;;;24.90;33.30;;;;;;5055827;28;20132;-87
2020/12/17 08:31:51;;;;;;;18.90;11.48;;;24.90;33.30;;;;;;5054653;28;20051;-76
2020/12/17 08:34:18;;;;;;;20.42;12.07;;;24.90;33.30;;;;;;5053250;28;20505;-80
2020/12/17 08:36:45;;;;;;;20.83;12.07;;;24.90;33.40;;;;;;5052769;28;20155;-78
2020/12/17 08:39:14;;;;;;;19.08;12.52;;;24.90;33.40;;;;;;5045992;28;20378;-72
2020/12/17 08:41:52;;;;;;;22.15;13.20;;;24.90;33.40;;;;;;5042744;28;20048;-78
2020/12/17 08:44:29;;;;;;;20.73;11.57;;;24.90;33.40;;;;;;5046059;28;20144;-73
2020/12/17 08:46:58;;;;;;;21.20;12.18;;;24.90;33.40;;;;;;5039809;28;20045;-78
2020/12/17 08:49:28;;;;;;;21.02;11.75;;;24.90;33.40;;;;;;5044559;28;20049;-79
2020/12/17 08:51:56;;;;;;;24.02;11.90;;;24.90;33.40;;;;;;5045990;28;20041;-82
2020/12/17 08:54:24;;;;;;;22.63;13.55;;;24.90;33.50;;;;;;5048044;28;20045;-80
2020/12/17 08:57:07;;;;;;;22.23;12.75;;;24.90;33.60;;;;;;5049215;28;20068;-77
2020/12/17 08:59:35;;;;;;;29.98;12.48;;;24.90;33.60;;;;;;5042907;28;20498;-74
2020/12/17 09:02:03;;;;;;;21.35;12.60;;;24.90;33.70;;;;;;5043532;28;20119;-74
2020/12/17 09:04:29;;;;;;;21.13;12.30;;;24.90;33.60;;;;;;5048004;28;20135;-72
2020/12/17 09:06:59;;;;;;;23.52;12.85;;;24.90;33.60;;;;;;5044513;28;20180;-76
2020/12/17 09:09:28;;;;;;;21.17;12.40;;;24.90;33.60;;;;;;5042008;28;20048;-74
2020/12/17 09:12:05;;;;;;;22.58;11.95;;;24.80;33.50;;;;;;5043579;28;20041;-73
2020/12/17 09:14:33;;;;;;;18.70;11.25;;;24.80;33.70;;;;;;5044968;28;20044;-76
2020/12/17 09:17:16;;;;;;;18.08;11.70;;;24.80;33.80;;;;;;5040025;28;20509;-76
2020/12/17 09:19:45;;;;;;;19.38;12.00;;;24.80;33.90;;;;;;5039228;28;20127;-72
2020/12/17 09:22:13;;;;;;;20.65;12.27;;;24.80;34.00;;;;;;5041028;28;20579;-74
2020/12/17 09:24:45;;;;;;;23.90;13.35;;;24.80;34.00;;;;;;5041100;28;20103;-75
2020/12/17 09:27:20;;;;;;;18.38;11.55;;;24.80;33.90;;;;;;5042710;28;20143;-75
2020/12/17 09:30:07;;;;;;;21.95;12.13;;;24.80;33.70;;;;;;5045194;28;20045;-74
2020/12/17 09:32:37;;;;;;;19.67;11.63;;;24.70;33.70;;;;;;5039988;28;20051;-73
2020/12/17 09:35:12;;;;;;;23.20;12.35;;;24.70;33.60;;;;;;5039012;28;20072;-74
2020/12/17 09:37:42;;;;;;;17.80;11.60;;;24.70;33.60;;;;;;5039891;28;20115;-71
2020/12/17 09:40:10;;;;;;;19.58;12.02;;;24.80;33.60;;;;;;5040804;28;20043;-72
2020/12/17 09:42:37;;;;;;;18.33;11.15;;;24.70;33.60;;;;;;5036802;28;20037;-74
2020/12/17 09:45:16;;;;;;;19.38;11.77;;;24.70;33.50;;;;;;5042052;28;20056;-71
2020/12/17 09:47:43;;;;;;;18.98;11.82;;;24.70;33.40;;;;;;5039635;28;20645;-69
2020/12/17 09:50:15;;;;;;;44.63;22.33;;;24.70;33.50;;;;;;5043755;28;20044;-72
2020/12/17 09:52:42;;;;;;;24.88;13.82;;;24.70;30.10;;;;;;5039481;28;20123;-71
2020/12/17 09:55:12;;;;;;;23.23;13.05;;;24.50;31.80;;;;;;5034259;28;20446;-69
2020/12/17 09:57:41;;;;;;;24.15;13.50;;;24.40;32.60;;;;;;5035835;28;20246;-72
2020/12/17 10:00:10;;;;;;;21.55;12.82;;;24.40;33.40;;;;;;5042804;28;20533;-72
2020/12/17 10:02:47;;;;;;;22.35;13.40;;;24.40;33.10;;;;;;5038335;28;20045;-74
2020/12/17 10:05:14;;;;;;;22.58;13.27;;;24.40;33.20;;;;;;5037799;28;20132;-73
2020/12/17 10:07:47;;;;;;;21.33;12.82;;;24.40;33.30;;;;;;5036190;28;20076;-71
2020/12/17 10:10:14;;;;;;;21.98;13.38;;;24.40;33.30;;;;;;5031974;28;20067;-70
2020/12/17 10:12:42;;;;;;;22.80;13.57;;;24.50;33.50;;;;;;5039513;28;20076;-69
2020/12/17 10:15:09;;;;;;;19.83;12.40;;;24.50;33.50;;;;;;5035380;28;20055;-76
2020/12/17 10:17:36;;;;;;;21.08;12.48;;;24.50;33.50;;;;;;5035695;28;20044;-73
2020/12/17 10:20:07;;;;;;;19.42;11.82;;;24.50;33.40;;;;;;5043864;28;20098;-72
2020/12/17 10:22:46;;;;;;;23.40;11.97;;;24.50;33.40;;;;;;5038142;28;20052;-73
2020/12/17 10:25:16;;;;;;;19.17;12.10;;;24.50;33.40;;;;;;5041359;28;20075;-73
2020/12/17 10:27:42;;;;;;;21.73;12.13;;;24.50;33.30;;;;;;5036931;28;20081;-71
2020/12/17 10:30:10;;;;;;;20.38;12.07;;;24.50;33.20;;;;;;5039466;28;20855;-73
2020/12/17 10:32:43;;;;;;;21.23;12.60;;;24.60;33.20;;;;;;5041379;28;20073;-71
2020/12/17 10:35:11;;;;;;;20.48;12.25;;;24.60;33.20;;;;;;5039389;28;20479;-75
2020/12/17 10:37:42;;;;;;;19.15;11.93;;;24.60;33.10;;;;;;5041294;28;20115;-70
2020/12/17 10:40:10;;;;;;;20.58;11.98;;;24.60;33.10;;;;;;5056350;28;20049;-74
2020/12/17 10:42:38;;;;;;;19.77;12.05;;;24.60;33.10;;;;;;5039068;28;20094;-70
2020/12/17 10:45:23;;;;;;;21.27;12.55;;;24.70;33.20;;;;;;5032978;28;20147;-73
2020/12/17 10:47:50;;;;;;;21.25;12.35;;;24.70;33.10;;;;;;5039667;28;20047;-74
2020/12/17 10:50:16;;;;;;;19.98;11.38;;;24.70;33.00;;;;;;5039083;28;20128;-74
2020/12/17 10:52:45;;;;;;;22.23;12.73;;;24.70;33.00;;;;;;5038885;28;20080;-73
2020/12/17 10:55:12;;;;;;;18.85;11.85;;;24.70;32.90;;;;;;5043499;28;20052;-73
2020/12/17 10:57:39;;;;;;;21.35;11.88;;;24.70;33.00;;;;;;5040884;28;20080;-70
2020/12/17 11:00:06;;;;;;;20.58;11.98;;;24.70;32.90;;;;;;5044509;28;20124;-70
2020/12/17 11:02:34;;;;;;;23.02;12.93;;;24.70;32.80;;;;;;5043477;28;20490;-71
2020/12/17 11:05:00;;;;;;;20.15;11.82;;;24.70;32.80;;;;;;5040344;28;20041;-71
2020/12/17 11:07:29;;;;;;;18.15;11.80;;;24.70;32.80;;;;;;5041356;28;20076;-73
2020/12/17 11:09:55;;;;;;;22.20;12.68;;;24.80;32.80;;;;;;5043403;28;20045;-67
2020/12/17 11:12:22;;;;;;;23.77;12.38;;;24.70;32.80;;;;;;5040992;28;20102;-75
2020/12/17 11:14:49;;;;;;;21.13;11.75;;;24.80;32.60;;;;;;5040675;28;20646;-67
2020/12/17 11:17:16;;;;;;;22.55;13.18;;;24.70;32.20;;;;;;5041524;28;20080;-68
2020/12/17 11:19:43;;;;;;;23.63;13.15;;;24.70;32.00;;;;;;5040167;28;20630;-67
2020/12/17 11:22:10;;;;;;;19.40;12.15;;;24.70;31.90;;;;;;5040507;28;20106;-66
2020/12/17 11:24:37;;;;;;;18.67;10.93;;;24.70;31.80;;;;;;5041936;28;20444;-73
2020/12/17 11:27:04;;;;;;;16.80;10.57;;;24.60;32.10;;;;;;5042984;28;20045;-71
2020/12/17 11:29:31;;;;;;;17.33;10.60;;;24.60;32.40;;;;;;5041278;28;20036;-69
2020/12/17 11:31:58;;;;;;;17.60;10.80;;;24.60;32.60;;;;;;5043852;28;20041;-70
2020/12/17 11:34:25;;;;;;;19.20;10.82;;;24.60;32.80;;;;;;5043808;28;20674;-72
2020/12/17 11:36:51;;;;;;;17.00;10.80;;;24.60;32.90;;;;;;5041557;28;20079;-71
2020/12/17 11:39:18;;;;;;;23.33;10.65;;;24.60;32.90;;;;;;5049587;28;20140;-69
2020/12/17 11:41:48;;;;;;;16.67;11.00;;;24.60;33.10;;;;;;5031238;28;20073;-73
2020/12/17 11:44:17;;;;;;;14.07;9.45;;;24.70;33.30;;;;;;5040261;28;20059;-72
2020/12/17 11:46:45;;;;;;;16.70;9.95;;;24.70;33.50;;;;;;5038706;28;20073;-69
2020/12/17 11:49:12;;;;;;;16.38;10.70;;;24.70;33.80;;;;;;5044530;28;20091;-69
2020/12/17 11:51:40;;;;;;;14.60;9.57;;;24.70;34.00;;;;;;5040725;28;20139;-66
2020/12/17 11:54:06;;;;;;;16.33;10.13;;;24.80;34.20;;;;;;5041900;28;20132;-69
2020/12/17 11:56:34;;;;;;;15.98;9.70;;;24.80;34.30;;;;;;5039512;28;20072;-68
2020/12/17 11:59:01;;;;;;;16.85;10.95;;;24.80;34.30;;;;;;5040784;28;20653;-69
2020/12/17 12:01:29;;;;;;;14.25;9.50;;;24.90;34.40;;;;;;5038707;28;20055;-69
2020/12/17 12:03:56;;;;;;;16.15;10.45;;;24.90;35.00;;;;;;5036423;28;20500;-71
2020/12/17 12:06:22;;;;;;;13.90;9.40;;;24.90;34.50;;;;;;5041147;28;20037;-72
2020/12/17 12:08:50;;;;;;;15.63;9.70;;;24.90;34.60;;;;;;5039962;28;20044;-70
2020/12/17 12:11:17;;;;;;;15.73;10.25;;;25.00;34.60;;;;;;5040288;28;20095;-71
2020/12/17 12:13:50;;;;;;;14.98;9.23;;;25.00;34.50;;;;;;5062376;28;20056;-70
2020/12/17 12:16:17;;;;;;;15.55;9.25;;;25.00;34.20;;;;;;5043504;28;20055;-71
2020/12/17 12:18:43;;;;;;;14.93;9.63;;;25.00;34.00;;;;;;5040616;28;20094;-73
2020/12/17 12:21:12;;;;;;;18.38;10.00;;;25.00;33.90;;;;;;5045078;28;20044;-71
2020/12/17 12:23:41;;;;;;;15.75;10.60;;;25.10;34.10;;;;;;5059028;28;20076;-75
2020/12/17 12:26:08;;;;;;;16.77;10.43;;;25.10;34.10;;;;;;5059391;28;20060;-73
2020/12/17 12:28:35;;;;;;;16.42;10.02;;;25.10;34.10;;;;;;5058700;28;20049;-72
2020/12/17 12:31:02;;;;;;;17.73;10.30;;;25.10;34.20;;;;;;5058894;28;20056;-70
2020/12/17 12:33:30;;;;;;;15.93;11.05;;;25.10;34.20;;;;;;5050923;28;20186;-66
2020/12/17 12:35:57;;;;;;;16.23;10.50;;;25.10;34.30;;;;;;5037832;28;20114;-66
2020/12/17 12:38:24;;;;;;;16.02;10.50;;;25.10;34.20;;;;;;5033187;28;20566;-66
2020/12/17 12:40:50;;;;;;;18.92;11.30;;;25.10;34.10;;;;;;5042865;28;20125;-67
2020/12/17 12:43:17;;;;;;;17.08;11.25;;;25.10;34.10;;;;;;5036298;28;20072;-69